createdAt,value
2018-08-19T00:00:14.017Z,71.22
2018-08-19T00:00:54.864Z,71.12
2018-08-19T00:01:35.612Z,71.03
2018-08-19T00:02:16.377Z,71.32
2018-08-19T00:02:57.272Z,71.22
2018-08-19T00:03:38.014Z,71.22
2018-08-19T00:04:18.750Z,71.03
2018-08-19T00:04:59.488Z,71.51
2018-08-19T00:05:40.270Z,71.22
2018-08-19T00:06:21.105Z,71.42
2018-08-19T00:07:02.165Z,71.51
2018-08-19T00:07:42.975Z,71.61
2018-08-19T00:08:23.780Z,71.51
2018-08-19T00:09:04.534Z,71.61
2018-08-19T00:09:45.360Z,71.32
2018-08-19T00:10:26.071Z,71.32
2018-08-19T00:11:06.799Z,71.32
2018-08-19T00:11:47.605Z,71.22
2018-08-19T00:12:28.409Z,71.22
2018-08-19T00:13:09.301Z,71.32
2018-08-19T00:13:50.185Z,71.12
2018-08-19T00:14:30.903Z,71.12
2018-08-19T00:15:11.671Z,71.22
2018-08-19T00:15:52.491Z,71.22
2018-08-19T00:16:33.302Z,71.12
2018-08-19T00:17:14.026Z,71.12
2018-08-19T00:17:54.751Z,71.12
2018-08-19T00:18:35.547Z,71.12
2018-08-19T00:19:16.396Z,71.12
2018-08-19T00:19:57.275Z,71.22
2018-08-19T00:20:38.036Z,71.22
2018-08-19T00:21:18.764Z,71.12
2018-08-19T00:21:59.495Z,71.12
2018-08-19T00:22:40.262Z,70.93
2018-08-19T00:23:21.097Z,71.22
2018-08-19T00:24:01.892Z,71.12
2018-08-19T00:24:42.616Z,71.32
2018-08-19T00:25:23.451Z,71.12
2018-08-19T00:26:04.289Z,71.12
2018-08-19T00:26:45.096Z,71.12
2018-08-19T00:27:25.847Z,71.12
2018-08-19T00:28:06.632Z,71.32
2018-08-19T00:28:47.365Z,71.42
2018-08-19T00:29:28.232Z,71.22
2018-08-19T00:30:09.056Z,71.03
2018-08-19T00:30:49.920Z,71.22
2018-08-19T00:31:30.752Z,71.12
2018-08-19T00:32:11.506Z,71.12
2018-08-19T00:32:52.309Z,71.32
2018-08-19T00:33:33.112Z,71.32
2018-08-19T00:34:13.828Z,71.32
2018-08-19T00:34:54.532Z,71.12
2018-08-19T00:35:35.348Z,71.32
2018-08-19T00:36:16.173Z,71.12
2018-08-19T00:36:56.940Z,71.32
2018-08-19T00:37:37.712Z,71.22
2018-08-19T00:38:18.554Z,71.32
2018-08-19T00:38:59.365Z,71.12
2018-08-19T00:39:40.187Z,71.12
2018-08-19T00:40:20.974Z,71.22
2018-08-19T00:41:01.693Z,71.22
2018-08-19T00:41:42.539Z,71.12
2018-08-19T00:42:23.283Z,71.32
2018-08-19T00:43:04.032Z,71.12
2018-08-19T00:43:44.749Z,71.12
2018-08-19T00:44:25.551Z,71.12
2018-08-19T00:45:06.421Z,71.32
2018-08-19T00:45:47.256Z,71.12
2018-08-19T00:46:28.026Z,71.12
2018-08-19T00:47:08.753Z,71.32
2018-08-19T00:47:49.454Z,71.12
2018-08-19T00:48:30.212Z,71.32
2018-08-19T00:49:11.014Z,71.12
2018-08-19T00:49:51.827Z,71.12
2018-08-19T00:50:32.521Z,71.12
2018-08-19T00:51:13.316Z,71.48
2018-08-19T00:51:54.112Z,71.58
2018-08-19T00:52:35.007Z,71.96
2018-08-19T00:53:15.771Z,71.96
2018-08-19T00:53:56.510Z,71.51
2018-08-19T00:54:37.271Z,71.8
2018-08-19T00:55:18.081Z,71.32
2018-08-19T00:55:58.930Z,71.96
2018-08-19T00:56:39.777Z,71.77
2018-08-19T00:57:20.600Z,72.06
2018-08-19T00:58:01.316Z,71.96
2018-08-19T00:58:42.113Z,71.67
2018-08-19T00:59:22.988Z,72.16
2018-08-19T01:00:03.745Z,72.16
2018-08-19T01:00:44.502Z,72.06
2018-08-19T01:01:25.239Z,71.96
2018-08-19T01:02:06.102Z,72.06
2018-08-19T01:02:46.898Z,71.77
2018-08-19T01:03:27.709Z,72.06
2018-08-19T01:04:08.537Z,72.06
2018-08-19T01:04:49.256Z,71.77
2018-08-19T01:05:29.964Z,72.16
2018-08-19T01:06:10.746Z,71.77
2018-08-19T01:06:51.565Z,71.77
2018-08-19T01:07:32.325Z,71.96
2018-08-19T01:08:13.098Z,71.96
2018-08-19T01:08:53.906Z,71.86
2018-08-19T01:09:34.748Z,72.06
2018-08-19T01:10:15.541Z,71.48
2018-08-19T01:10:56.271Z,71.77
2018-08-19T01:11:37.064Z,71.77
2018-08-19T01:12:17.886Z,71.96
2018-08-19T01:12:58.616Z,71.77
2018-08-19T01:13:39.370Z,71.28
2018-08-19T01:14:20.121Z,71.48
2018-08-19T01:15:00.942Z,71.38
2018-08-19T01:15:41.690Z,71.96
2018-08-19T01:16:22.444Z,71.28
2018-08-19T01:17:03.239Z,71.09
2018-08-19T01:17:44.010Z,71.28
2018-08-19T01:18:24.893Z,71.48
2018-08-19T01:19:05.685Z,71.38
2018-08-19T01:19:46.436Z,71.58
2018-08-19T01:20:27.200Z,70.99
2018-08-19T01:21:07.948Z,71.28
2018-08-19T01:21:48.755Z,71.09
2018-08-19T01:22:29.578Z,71.19
2018-08-19T01:23:10.356Z,71.09
2018-08-19T01:23:51.140Z,71.09
2018-08-19T01:24:31.848Z,71.28
2018-08-19T01:25:12.712Z,71.28
2018-08-19T01:25:53.472Z,71.28
2018-08-19T01:26:34.230Z,71.58
2018-08-19T01:27:15.008Z,71.48
2018-08-19T01:27:55.771Z,71.48
2018-08-19T01:28:36.577Z,71.48
2018-08-19T01:29:17.361Z,71.28
2018-08-19T01:29:58.071Z,71.48
2018-08-19T01:30:38.906Z,71.48
2018-08-19T01:31:19.675Z,71.58
2018-08-19T01:32:00.548Z,71.38
2018-08-19T01:32:41.286Z,71.38
2018-08-19T01:33:22.180Z,71.48
2018-08-19T01:34:03.044Z,71.28
2018-08-19T01:34:43.885Z,71.28
2018-08-19T01:35:24.557Z,71.19
2018-08-19T01:36:05.309Z,71.48
2018-08-19T01:36:46.086Z,70.99
2018-08-19T01:37:26.997Z,70.99
2018-08-19T01:38:07.890Z,70.99
2018-08-19T01:38:48.704Z,71.19
2018-08-19T01:39:29.478Z,71.19
2018-08-19T01:40:10.205Z,71.58
2018-08-19T01:40:50.946Z,71.19
2018-08-19T01:41:31.822Z,71.67
2018-08-19T01:42:12.603Z,71.48
2018-08-19T01:42:53.339Z,71.19
2018-08-19T01:43:34.180Z,71.28
2018-08-19T01:44:14.955Z,71.19
2018-08-19T01:44:55.790Z,70.99
2018-08-19T01:45:36.549Z,71.48
2018-08-19T01:46:17.316Z,71.48
2018-08-19T01:46:58.200Z,71.38
2018-08-19T01:47:39.433Z,70.9
2018-08-19T01:48:20.163Z,70.8
2018-08-19T01:49:01.107Z,71.09
2018-08-19T01:49:41.839Z,70.99
2018-08-19T01:50:22.705Z,70.99
2018-08-19T01:51:03.467Z,71.09
2018-08-19T01:51:44.200Z,70.9
2018-08-19T01:52:25.545Z,70.31
2018-08-19T01:53:06.392Z,70.51
2018-08-19T01:53:47.239Z,70.7
2018-08-19T01:54:27.950Z,70.8
2018-08-19T01:55:08.745Z,70.61
2018-08-19T01:55:49.559Z,70.8
2018-08-19T01:56:30.401Z,70.61
2018-08-19T01:57:11.193Z,70.51
2018-08-19T01:57:52.069Z,70.61
2018-08-19T01:58:32.866Z,70.8
2018-08-19T01:59:13.630Z,70.8
2018-08-19T01:59:54.482Z,70.41
2018-08-19T02:00:35.240Z,70.41
2018-08-19T02:01:15.976Z,70.61
2018-08-19T02:01:56.812Z,70.61
2018-08-19T02:02:37.563Z,70.9
2018-08-19T02:03:18.452Z,70.7
2018-08-19T02:03:59.263Z,70.61
2018-08-19T02:04:40.099Z,70.61
2018-08-19T02:05:20.900Z,70.8
2018-08-19T02:06:01.604Z,70.8
2018-08-19T02:06:42.375Z,70.9
2018-08-19T02:07:23.116Z,70.8
2018-08-19T02:08:03.977Z,70.8
2018-08-19T02:08:44.743Z,70.61
2018-08-19T02:09:25.508Z,70.8
2018-08-19T02:10:06.365Z,70.8
2018-08-19T02:10:47.240Z,70.7
2018-08-19T02:11:28.023Z,70.8
2018-08-19T02:12:08.791Z,70.61
2018-08-19T02:12:49.602Z,70.61
2018-08-19T02:13:30.361Z,70.7
2018-08-19T02:14:11.256Z,70.8
2018-08-19T02:14:52.037Z,70.61
2018-08-19T02:15:32.919Z,70.8
2018-08-19T02:16:13.684Z,70.8
2018-08-19T02:16:54.461Z,70.61
2018-08-19T02:17:35.315Z,70.51
2018-08-19T02:18:16.090Z,70.51
2018-08-19T02:18:56.807Z,70.7
2018-08-19T02:19:37.530Z,70.61
2018-08-19T02:20:18.288Z,70.7
2018-08-19T02:20:59.178Z,70.31
2018-08-19T02:21:39.955Z,70.41
2018-08-19T02:22:20.695Z,70.31
2018-08-19T02:23:01.549Z,70.51
2018-08-19T02:23:42.362Z,70.51
2018-08-19T02:24:23.143Z,71.09
2018-08-19T02:25:03.848Z,71.19
2018-08-19T02:25:44.645Z,70.61
2018-08-19T02:26:25.541Z,70.7
2018-08-19T02:27:06.269Z,70.51
2018-08-19T02:27:47.000Z,70.61
2018-08-19T02:28:27.763Z,70.7
2018-08-19T02:29:08.605Z,70.7
2018-08-19T02:29:49.365Z,70.61
2018-08-19T02:30:30.203Z,70.7
2018-08-19T02:31:10.960Z,70.61
2018-08-19T02:31:51.676Z,70.7
2018-08-19T02:32:32.403Z,70.8
2018-08-19T02:33:13.186Z,70.8
2018-08-19T02:33:54.044Z,70.8
2018-08-19T02:34:34.804Z,70.99
2018-08-19T02:35:15.525Z,70.76
2018-08-19T02:35:56.349Z,70.99
2018-08-19T02:36:37.117Z,70.8
2018-08-19T02:37:17.939Z,70.99
2018-08-19T02:37:58.698Z,70.7
2018-08-19T02:38:39.461Z,70.8
2018-08-19T02:39:20.231Z,70.99
2018-08-19T02:40:01.038Z,70.96
2018-08-19T02:40:41.797Z,70.96
2018-08-19T02:41:22.637Z,70.67
2018-08-19T02:42:03.375Z,70.67
2018-08-19T02:42:44.101Z,70.57
2018-08-19T02:43:24.931Z,70.47
2018-08-19T02:44:05.731Z,70.67
2018-08-19T02:44:46.444Z,70.28
2018-08-19T02:45:27.193Z,70.76
2018-08-19T02:46:08.019Z,70.67
2018-08-19T02:46:48.874Z,70.47
2018-08-19T02:47:29.721Z,70.57
2018-08-19T02:48:10.533Z,71.15
2018-08-19T02:48:51.276Z,71.06
2018-08-19T02:49:32.007Z,71.06
2018-08-19T02:50:12.749Z,71.06
2018-08-19T02:50:53.571Z,71.15
2018-08-19T02:51:34.360Z,71.06
2018-08-19T02:52:15.108Z,70.86
2018-08-19T02:52:55.909Z,70.47
2018-08-19T02:53:36.704Z,70.57
2018-08-19T02:54:17.575Z,70.67
2018-08-19T02:54:58.322Z,70.76
2018-08-19T02:55:39.095Z,70.67
2018-08-19T02:56:19.946Z,70.47
2018-08-19T02:57:00.715Z,70.67
2018-08-19T02:57:41.428Z,70.76
2018-08-19T02:58:22.194Z,70.76
2018-08-19T02:59:02.918Z,70.76
2018-08-19T02:59:43.734Z,70.76
2018-08-19T03:00:24.521Z,70.96
2018-08-19T03:01:05.305Z,70.76
2018-08-19T03:01:46.095Z,70.96
2018-08-19T03:02:26.855Z,70.76
2018-08-19T03:03:07.734Z,70.96
2018-08-19T03:05:03.974Z,70.47
2018-08-19T03:05:44.726Z,70.57
2018-08-19T03:06:25.465Z,71.25
2018-08-19T03:07:06.249Z,70.47
2018-08-19T03:07:47.105Z,70.57
2018-08-19T03:08:27.941Z,70.67
2018-08-19T03:09:08.677Z,70.57
2018-08-19T03:09:49.443Z,70.96
2018-08-19T03:10:30.362Z,70.76
2018-08-19T03:11:11.130Z,70.57
2018-08-19T03:11:51.875Z,71.06
2018-08-19T03:12:32.642Z,70.76
2018-08-19T03:13:13.468Z,70.86
2018-08-19T03:13:54.295Z,70.47
2018-08-19T03:14:35.002Z,70.47
2018-08-19T03:15:15.856Z,70.28
2018-08-19T03:15:56.581Z,70.47
2018-08-19T03:16:37.369Z,70.47
2018-08-19T03:17:18.228Z,70.47
2018-08-19T03:17:58.954Z,70.47
2018-08-19T03:18:39.833Z,70.47
2018-08-19T03:19:20.690Z,70.47
2018-08-19T03:20:01.408Z,70.57
2018-08-19T03:20:42.136Z,70.67
2018-08-19T03:21:22.891Z,70.96
2018-08-19T03:22:03.689Z,70.57
2018-08-19T03:22:44.583Z,70.57
2018-08-19T03:23:25.443Z,70.76
2018-08-19T03:24:06.202Z,70.86
2018-08-19T06:39:01.258Z,48.33
2018-08-19T06:39:42.126Z,48.33
2018-08-19T06:40:22.968Z,47.77
2018-08-19T06:41:03.706Z,47.69
2018-08-19T06:41:44.437Z,47.11
2018-08-19T06:42:25.237Z,47.03
2018-08-19T06:43:06.120Z,45.76
2018-08-19T06:43:46.847Z,45.68
2018-08-19T06:44:27.610Z,45.78
2018-08-19T06:45:08.490Z,45.19
2018-08-19T06:45:49.325Z,45.02
2018-08-19T06:46:30.192Z,44.92
2018-08-19T06:47:10.975Z,44.62
2018-08-19T06:47:51.751Z,44.84
2018-08-19T06:48:32.581Z,44.45
2018-08-19T06:49:13.374Z,43.98
2018-08-19T06:49:54.084Z,43.98
2018-08-19T06:50:34.808Z,43.41
2018-08-19T06:51:15.638Z,43.51
2018-08-19T06:51:56.406Z,42.75
2018-08-19T06:52:37.244Z,42.67
2018-08-19T06:53:18.051Z,42.28
2018-08-19T06:53:58.802Z,42.28
2018-08-19T06:54:39.565Z,42.1
2018-08-19T06:55:20.367Z,42
2018-08-19T06:56:01.202Z,42.02
2018-08-19T06:56:42.004Z,42.59
2018-08-19T06:57:22.682Z,42
2018-08-19T06:58:03.509Z,42.3
2018-08-19T06:58:44.371Z,42.12
2018-08-19T06:59:25.219Z,42.22
2018-08-19T07:00:05.992Z,42.32
2018-08-19T07:00:46.770Z,42.32
2018-08-19T07:01:27.589Z,42.12
2018-08-19T07:02:08.354Z,42.12
2018-08-19T07:02:49.122Z,42.02
2018-08-19T07:03:29.948Z,42.12
2018-08-19T07:04:10.626Z,41.94
2018-08-19T07:04:51.452Z,42.04
2018-08-19T07:05:32.263Z,41.16
2018-08-19T07:06:13.000Z,41.08
2018-08-19T07:06:53.962Z,41.45
2018-08-19T07:07:34.783Z,41.25
2018-08-19T07:08:15.677Z,41.27
2018-08-19T07:08:56.411Z,41.08
2018-08-19T07:09:37.150Z,40.8
2018-08-19T07:10:17.885Z,40.8
2018-08-19T07:10:58.708Z,40.8
2018-08-19T07:11:39.487Z,40.9
2018-08-19T07:12:20.303Z,40.31
2018-08-19T07:13:01.075Z,40.9
2018-08-19T07:13:41.866Z,40.8
2018-08-19T07:14:22.746Z,40.61
2018-08-19T07:15:03.494Z,40.63
2018-08-19T07:15:44.266Z,40.9
2018-08-19T07:16:25.024Z,40.9
2018-08-19T07:17:05.816Z,40.7
2018-08-19T07:17:46.615Z,40.41
2018-08-19T07:18:27.359Z,39.62
2018-08-19T07:19:08.128Z,40.61
2018-08-19T07:19:48.964Z,40.7
2018-08-19T07:20:29.764Z,40.61
2018-08-19T07:21:10.585Z,39.62
2018-08-19T07:21:51.406Z,40.21
2018-08-19T07:22:32.127Z,39.62
2018-08-19T07:23:13.029Z,39.62
2018-08-19T07:23:53.949Z,39.52
2018-08-19T07:24:34.560Z,39.72
2018-08-19T07:25:15.301Z,39.52
2018-08-19T07:25:56.099Z,39.39
2018-08-19T07:26:36.953Z,40.64
2018-08-19T07:27:17.778Z,40.72
2018-08-19T07:27:58.621Z,41.49
2018-08-19T07:28:39.387Z,42.16
2018-08-19T07:29:20.133Z,42.72
2018-08-19T07:30:00.881Z,43.59
2018-08-19T07:30:41.757Z,44.16
2018-08-19T07:31:22.556Z,44.43
2018-08-19T07:32:03.324Z,45.19
2018-08-19T07:32:44.125Z,45.19
2018-08-19T07:33:24.921Z,45.56
2018-08-19T07:34:05.757Z,45.73
2018-08-19T07:34:46.610Z,46.79
2018-08-19T07:35:27.472Z,47.16
2018-08-19T07:36:08.250Z,47.16
2018-08-19T07:36:49.094Z,48.04
2018-08-19T07:37:29.890Z,48.31
2018-08-19T07:38:10.738Z,48.77
2018-08-19T07:38:51.533Z,49.16
2018-08-19T07:39:32.308Z,50.02
2018-08-19T07:40:13.201Z,50.71
2018-08-19T07:40:54.007Z,50.68
2018-08-19T07:41:34.791Z,51.27
2018-08-19T07:42:15.519Z,51.86
2018-08-19T07:42:57.059Z,51.43
2018-08-19T07:43:37.883Z,51.63
2018-08-19T07:44:18.664Z,52.8
2018-08-19T07:44:59.547Z,52.39
2018-08-19T07:45:40.344Z,52.29
2018-08-19T07:46:21.159Z,53.17
2018-08-19T07:47:01.940Z,53.46
2018-08-19T07:47:42.704Z,53.53
2018-08-19T07:48:23.510Z,54.11
2018-08-19T07:49:04.275Z,54.11
2018-08-19T07:49:45.026Z,54.38
2018-08-19T07:50:25.910Z,54.48
2018-08-19T07:51:06.777Z,55.46
2018-08-19T07:51:47.605Z,55.38
2018-08-19T07:52:28.353Z,55.65
2018-08-19T07:53:09.145Z,55.36
2018-08-19T07:53:50.000Z,55.85
2018-08-19T07:54:30.754Z,55.65
2018-08-19T07:55:11.504Z,56.33
2018-08-19T07:55:52.297Z,55.55
2018-08-19T07:56:33.101Z,55.85
2018-08-19T07:57:13.925Z,55.72
2018-08-19T07:57:54.672Z,56.5
2018-08-19T07:58:35.450Z,55.62
2018-08-19T07:59:16.251Z,55.91
2018-08-19T07:59:57.112Z,56.21
2018-08-19T08:00:38.162Z,56.3
2018-08-19T08:01:18.911Z,56.7
2018-08-19T08:01:59.671Z,57.37
2018-08-19T08:02:40.443Z,57.09
2018-08-19T08:03:21.261Z,57.54
2018-08-19T08:04:02.085Z,57.18
2018-08-19T08:04:43.112Z,57.35
2018-08-19T08:05:23.888Z,56.96
2018-08-19T08:06:04.600Z,56.89
2018-08-19T08:06:45.451Z,56.18
2018-08-19T08:07:26.205Z,55.91
2018-08-19T08:08:06.927Z,56.37
2018-08-19T08:08:47.670Z,54.23
2018-08-19T08:09:28.431Z,53.36
2018-08-19T08:10:09.267Z,53.75
2018-08-19T08:10:50.167Z,54.62
2018-08-19T08:11:31.005Z,54.23
2018-08-19T08:12:11.839Z,54.33
2018-08-19T08:12:52.554Z,55.4
2018-08-19T08:13:33.315Z,54.82
2018-08-19T08:14:14.160Z,54.43
2018-08-19T08:14:54.995Z,54.52
2018-08-19T08:15:35.782Z,54.62
2018-08-19T08:16:16.517Z,54.91
2018-08-19T08:16:57.350Z,54.52
2018-08-19T08:17:38.820Z,54.13
2018-08-19T08:18:19.627Z,54.52
2018-08-19T08:19:00.401Z,55.01
2018-08-19T08:19:41.404Z,54.82
2018-08-19T08:20:22.390Z,54.91
2018-08-19T08:21:03.189Z,55.21
2018-08-19T08:21:44.097Z,55.4
2018-08-19T08:22:24.904Z,55.4
2018-08-19T08:23:05.708Z,55.57
2018-08-19T08:23:46.655Z,55.86
2018-08-19T08:24:27.543Z,55.3
2018-08-19T08:25:08.362Z,55.66
2018-08-19T08:25:49.127Z,55.21
2018-08-19T08:26:30.014Z,55.57
2018-08-19T08:27:10.829Z,55.5
2018-08-19T08:27:51.676Z,55.37
2018-08-19T08:28:32.434Z,55.47
2018-08-19T08:29:13.383Z,54.79
2018-08-19T08:29:54.207Z,55.47
2018-08-19T08:30:35.100Z,55.57
2018-08-19T08:31:15.972Z,55.47
2018-08-19T08:31:56.746Z,55.47
2018-08-19T08:32:37.574Z,55.86
2018-08-19T08:33:18.459Z,55.57
2018-08-19T08:33:59.151Z,55.86
2018-08-19T08:34:39.875Z,56.35
2018-08-19T08:35:20.615Z,55.18
2018-08-19T08:36:01.398Z,55.86
2018-08-19T08:36:42.209Z,55.47
2018-08-19T08:37:22.993Z,55.96
2018-08-19T08:38:03.780Z,55.86
2018-08-19T08:38:44.604Z,55.27
2018-08-19T08:39:25.591Z,55.37
2018-08-19T08:40:06.317Z,55.57
2018-08-19T08:40:47.286Z,55.66
2018-08-19T08:41:27.999Z,55.66
2018-08-19T08:42:08.812Z,55.96
2018-08-19T08:42:49.627Z,56.35
2018-08-19T08:43:30.435Z,56.15
2018-08-19T08:44:11.312Z,55.35
2018-08-19T08:44:52.008Z,55.64
2018-08-19T08:45:32.779Z,54.86
2018-08-19T08:46:13.549Z,54.79
2018-08-19T08:46:54.348Z,54.3
2018-08-19T08:47:35.471Z,54.86
2018-08-19T08:48:16.163Z,54.57
2018-08-19T08:48:56.956Z,54.4
2018-08-19T08:49:37.702Z,54.01
2018-08-19T08:50:18.543Z,53.91
2018-08-19T08:50:59.359Z,54.01
2018-08-19T08:51:40.111Z,53.33
2018-08-19T08:52:20.943Z,53.33
2018-08-19T08:53:01.713Z,53.59
2018-08-19T08:53:42.574Z,54.18
2018-08-19T08:54:23.691Z,55.15
2018-08-19T08:55:04.661Z,55.35
2018-08-19T08:55:45.468Z,54.86
2018-08-19T08:56:26.251Z,55.35
2018-08-19T08:57:07.007Z,55.44
2018-08-19T08:57:47.848Z,55.54
2018-08-19T08:58:28.675Z,55.44
2018-08-19T08:59:09.471Z,55.25
2018-08-19T08:59:50.274Z,55.25
2018-08-19T09:00:31.134Z,55.18
2018-08-19T09:01:12.005Z,55.54
2018-08-19T09:01:53.226Z,55.83
2018-08-19T09:02:34.076Z,55.83
2018-08-19T09:03:14.918Z,55.83
2018-08-19T09:03:55.706Z,56.22
2018-08-19T09:04:36.491Z,56.12
2018-08-19T09:05:17.198Z,56.03
2018-08-19T09:05:58.019Z,56.71
2018-08-19T09:06:38.826Z,56.32
2018-08-19T09:07:19.711Z,56.22
2018-08-19T09:08:00.673Z,56.9
2018-08-19T09:08:41.443Z,57.1
2018-08-19T09:09:22.333Z,56.71
2018-08-19T09:10:03.217Z,56.61
2018-08-19T09:10:43.985Z,56.9
2018-08-19T09:11:24.756Z,57.29
2018-08-19T09:12:05.484Z,57
2018-08-19T09:12:46.238Z,57.78
2018-08-19T09:13:27.137Z,57.49
2018-08-19T09:14:07.954Z,57.49
2018-08-19T09:14:48.803Z,57.78
2018-08-19T09:15:29.571Z,57.59
2018-08-19T09:16:10.376Z,57.68
2018-08-19T09:16:51.260Z,57.78
2018-08-19T09:17:32.011Z,57.78
2018-08-19T09:18:12.832Z,57.97
2018-08-19T09:18:53.561Z,58.17
2018-08-19T09:19:34.352Z,58.07
2018-08-19T09:20:15.145Z,58.07
2018-08-19T09:20:55.849Z,58.17
2018-08-19T09:21:36.616Z,58.07
2018-08-19T09:22:17.442Z,58.17
2018-08-19T09:22:58.365Z,57.49
2018-08-19T09:23:39.067Z,57.59
2018-08-19T09:24:19.842Z,58.36
2018-08-19T09:25:00.636Z,58.56
2018-08-19T09:25:41.487Z,58.46
2018-08-19T09:26:22.214Z,58.65
2018-08-19T09:27:02.978Z,59.05
2018-08-19T09:27:43.688Z,58.75
2018-08-19T09:28:24.539Z,59.23
2018-08-19T09:29:05.373Z,59.53
2018-08-19T09:29:46.237Z,58.75
2018-08-19T09:30:26.976Z,58.85
2018-08-19T09:31:07.697Z,59.82
2018-08-19T09:31:48.443Z,59.82
2018-08-19T09:32:29.216Z,59.82
2018-08-19T09:33:10.117Z,59.72
2018-08-19T09:33:50.847Z,59.82
2018-08-19T09:34:31.687Z,59.72
2018-08-19T09:35:12.556Z,59.72
2018-08-19T09:35:53.379Z,59.63
2018-08-19T09:36:34.243Z,59.72
2018-08-19T09:37:15.004Z,59.99
2018-08-19T09:37:55.807Z,59.92
2018-08-19T09:38:36.648Z,59.82
2018-08-19T09:39:17.453Z,60.02
2018-08-19T09:39:58.183Z,59.92
2018-08-19T09:40:39.000Z,60.02
2018-08-19T09:41:19.769Z,60.11
2018-08-19T09:42:00.600Z,60.41
2018-08-19T09:42:41.384Z,60.5
2018-08-19T09:43:22.192Z,60.7
2018-08-19T09:44:03.068Z,60.89
2018-08-19T09:44:43.886Z,60.6
2018-08-19T09:45:24.710Z,60.79
2018-08-19T09:46:05.482Z,60.79
2018-08-19T09:46:46.240Z,60.7
2018-08-19T09:47:27.121Z,60.6
2018-08-19T09:48:08.070Z,61.08
2018-08-19T09:48:49.172Z,61.08
2018-08-19T09:49:30.048Z,61.08
2018-08-19T09:50:10.811Z,61.38
2018-08-19T09:50:51.636Z,61.67
2018-08-19T09:51:32.572Z,61.47
2018-08-19T09:52:13.416Z,61.38
2018-08-19T09:52:54.164Z,62.41
2018-08-19T09:53:34.935Z,61.44
2018-08-19T09:54:15.747Z,61.47
2018-08-19T09:54:56.664Z,61.77
2018-08-19T09:55:37.496Z,61.47
2018-08-19T09:56:18.291Z,61.28
2018-08-19T09:56:59.118Z,61.18
2018-08-19T09:57:39.906Z,61.38
2018-08-19T09:58:20.706Z,61.18
2018-08-19T09:59:01.569Z,61.47
2018-08-19T09:59:42.435Z,61.47
2018-08-19T10:00:23.259Z,61.18
2018-08-19T10:01:04.191Z,60.31
2018-08-19T10:01:45.134Z,60.5
2018-08-19T10:02:25.971Z,61.28
2018-08-19T10:03:06.716Z,60.89
2018-08-19T10:03:47.482Z,61.28
2018-08-19T10:04:28.354Z,61.25
2018-08-19T10:05:09.176Z,61.47
2018-08-19T10:05:50.011Z,61.47
2018-08-19T10:06:30.840Z,61.18
2018-08-19T10:07:11.594Z,61.77
2018-08-19T10:07:52.400Z,61.47
2018-08-19T10:08:33.154Z,61.57
2018-08-19T10:09:13.940Z,61.08
2018-08-19T10:09:54.686Z,61.38
2018-08-19T10:10:35.414Z,61.18
2018-08-19T10:11:16.189Z,61.18
2018-08-19T10:11:57.049Z,61.28
2018-08-19T10:12:37.904Z,60.79
2018-08-19T10:13:18.683Z,60.5
2018-08-19T10:13:59.485Z,60.7
2018-08-19T10:14:40.302Z,60.5
2018-08-19T10:15:21.154Z,60.21
2018-08-19T10:16:01.902Z,60.5
2018-08-19T10:16:42.724Z,60.79
2018-08-19T10:17:23.589Z,60.79
2018-08-19T10:18:04.391Z,60.77
2018-08-19T10:18:45.132Z,60.7
2018-08-19T10:19:25.835Z,60.28
2018-08-19T10:20:06.636Z,60.79
2018-08-19T10:20:47.522Z,60.6
2018-08-19T10:21:28.723Z,60.02
2018-08-19T10:22:09.475Z,59.92
2018-08-19T10:22:50.254Z,60.41
2018-08-19T10:23:30.951Z,59.92
2018-08-19T10:24:11.662Z,59.72
2018-08-19T10:24:52.494Z,59.82
2018-08-19T10:25:33.326Z,60.28
2018-08-19T10:26:14.052Z,59.63
2018-08-19T10:26:54.834Z,59.53
2018-08-19T10:27:35.673Z,59.72
2018-08-19T10:28:16.539Z,59.72
2018-08-19T10:28:57.272Z,59.99
2018-08-19T10:29:38.052Z,60.11
2018-08-19T10:30:18.890Z,59.82
2018-08-19T10:30:59.714Z,60.31
2018-08-19T10:31:40.428Z,59.92
2018-08-19T10:32:21.172Z,60.11
2018-08-19T10:33:01.887Z,59.72
2018-08-19T10:33:42.688Z,60.02
2018-08-19T10:34:23.535Z,59.23
2018-08-19T10:35:04.256Z,59.14
2018-08-19T10:35:45.084Z,59.14
2018-08-19T10:36:25.858Z,58.95
2018-08-19T10:37:06.652Z,59.23
2018-08-19T10:37:47.653Z,59.05
2018-08-19T10:38:28.387Z,59.23
2018-08-19T10:39:09.239Z,58.65
2018-08-19T10:39:49.967Z,58.46
2018-08-19T10:40:30.858Z,57.68
2018-08-19T10:41:11.738Z,58.17
2018-08-19T10:41:52.616Z,57.78
2018-08-19T10:42:33.344Z,57.97
2018-08-19T10:43:14.158Z,58.17
2018-08-19T10:43:54.976Z,58.07
2018-08-19T10:44:35.704Z,58.17
2018-08-19T10:45:16.471Z,58.36
2018-08-19T10:45:57.248Z,58.46
2018-08-19T10:46:38.141Z,58.36
2018-08-19T10:47:18.895Z,58.36
2018-08-19T10:47:59.600Z,58.36
2018-08-19T10:48:40.405Z,58.17
2018-08-19T10:49:21.194Z,58.17
2018-08-19T10:50:02.022Z,58.17
2018-08-19T10:50:42.788Z,58.26
2018-08-19T10:51:23.513Z,58.17
2018-08-19T10:52:04.383Z,57.87
2018-08-19T10:52:45.167Z,57.87
2018-08-19T10:53:25.985Z,57.59
2018-08-19T10:54:06.643Z,57.49
2018-08-19T10:54:47.432Z,57.59
2018-08-19T10:55:28.360Z,57.59
2018-08-19T10:56:09.124Z,57.78
2018-08-19T10:56:49.968Z,57.78
2018-08-19T10:57:30.859Z,57.39
2018-08-19T10:58:11.588Z,57.29
2018-08-19T10:58:52.327Z,57.59
2018-08-19T10:59:33.158Z,57.2
2018-08-19T11:00:13.936Z,57.39
2018-08-19T11:00:54.647Z,57.29
2018-08-19T11:01:35.428Z,57.97
2018-08-19T11:02:16.305Z,57.49
2018-08-19T11:02:57.164Z,57.68
2018-08-19T11:03:38.001Z,57.49
2018-08-19T11:04:18.857Z,57
2018-08-19T11:04:59.603Z,57.2
2018-08-19T11:05:40.390Z,57.1
2018-08-19T11:06:21.291Z,57
2018-08-19T11:07:02.149Z,56.71
2018-08-19T11:07:43.113Z,56.81
2018-08-19T11:08:23.779Z,56.71
2018-08-19T11:09:04.600Z,56.51
2018-08-19T11:09:45.424Z,57.1
2018-08-19T11:10:26.190Z,57.29
2018-08-19T11:11:06.912Z,57.78
2018-08-19T11:11:47.671Z,57.49
2018-08-19T11:12:28.429Z,57.59
2018-08-19T11:13:09.307Z,57.59
2018-08-19T11:13:50.184Z,57.78
2018-08-19T11:14:30.993Z,57.78
2018-08-19T11:15:11.845Z,57.68
2018-08-19T11:15:52.717Z,57.39
2018-08-19T11:16:33.486Z,57.59
2018-08-19T11:17:14.372Z,57.49
2018-08-19T11:19:09.977Z,57.68
2018-08-19T11:19:50.567Z,57.87
2018-08-19T11:20:31.287Z,57.97
2018-08-19T11:21:12.071Z,57.87
2018-08-19T11:21:52.985Z,58.17
2018-08-19T11:22:33.767Z,57.97
2018-08-19T11:23:14.550Z,57.97
2018-08-19T11:23:55.478Z,57.87
2018-08-19T11:24:36.268Z,57.59
2018-08-19T11:25:16.969Z,57.68
2018-08-19T11:25:57.729Z,57.68
2018-08-19T11:26:38.533Z,57.78
2018-08-19T11:27:19.366Z,57.49
2018-08-19T11:28:00.057Z,57.78
2018-08-19T11:28:40.869Z,57.68
2018-08-19T11:29:21.669Z,57.29
2018-08-19T11:30:02.541Z,57.39
2018-08-19T11:30:43.304Z,57.78
2018-08-19T11:31:24.128Z,57.87
2018-08-19T11:32:04.903Z,57.68
2018-08-19T11:32:45.700Z,57.59
2018-08-19T11:33:26.621Z,57.59
2018-08-19T11:34:07.436Z,57.78
2018-08-19T11:34:48.236Z,57.59
2018-08-19T11:35:28.982Z,57.68
2018-08-19T11:36:09.907Z,57.71
2018-08-19T11:36:51.094Z,57.71
2018-08-19T11:37:31.855Z,58
2018-08-19T11:38:12.611Z,58.17
2018-08-19T11:38:53.443Z,58.39
2018-08-19T11:39:34.327Z,58.26
2018-08-19T11:40:15.136Z,58.49
2018-08-19T11:40:56.047Z,58.36
2018-08-19T11:41:36.807Z,58.36
2018-08-19T11:42:17.625Z,58.26
2018-08-19T11:42:58.369Z,58.49
2018-08-19T11:43:39.160Z,58.46
2018-08-19T11:44:20.048Z,58.97
2018-08-19T11:45:00.891Z,59.66
2018-08-19T11:45:41.696Z,59.27
2018-08-19T11:46:22.513Z,58.69
2018-08-19T11:47:03.306Z,58.1
2018-08-19T11:47:44.147Z,57.71
2018-08-19T11:48:24.913Z,57.9
2018-08-19T11:49:05.760Z,57.71
2018-08-19T11:49:46.605Z,57.71
2018-08-19T11:50:27.340Z,57.61
2018-08-19T11:51:08.055Z,57.71
2018-08-19T11:51:48.863Z,57.51
2018-08-19T11:52:29.641Z,57.42
2018-08-19T11:53:10.475Z,57.32
2018-08-19T11:53:51.255Z,57.61
2018-08-19T11:54:32.089Z,57.81
2018-08-19T11:55:12.974Z,57.42
2018-08-19T11:55:53.796Z,58
2018-08-19T11:56:34.673Z,57.9
2018-08-19T11:57:15.436Z,57.9
2018-08-19T11:57:56.200Z,57.9
2018-08-19T11:58:36.966Z,57.9
2018-08-19T11:59:17.789Z,57.71
2018-08-19T11:59:58.627Z,58.49
2018-08-19T12:00:39.934Z,57.9
2018-08-19T12:01:20.786Z,58.1
2018-08-19T12:02:01.704Z,58.2
2018-08-19T12:02:42.491Z,58.1
2018-08-19T12:03:23.274Z,58.1
2018-08-19T12:04:04.059Z,58.29
2018-08-19T12:04:44.823Z,58.2